KDMO/DMO METAR and TAF weather

Enter ICAO airport designator
Station Type Date Time Source
KDMO METAR 2019/10/18 06:53 UTC NOAA

KDMO 180653Z AUTO 15005KT 10SM CLR 07/06 A2993 RMK AO2 SLP135 T00720061


Station Type Date Time Source
KDMO Decoded METAR 2019/10/18 06:53 UTC NOAA

SEDALIA MEMORIAL AIRPORT, MO, United States (KDMO) 38-43N 93-10W 274M
Oct 18, 2019 - 02:53 AM EDT / 2019.10.18 0653 UTC
Wind: from the SSE (150 degrees) at 6 MPH (5 KT):0
Visibility: 10 mile(s):0
Sky conditions: clear
Temperature: 45.0 F (7.2 C)
Dew Point: 43.0 F (6.1 C)
Relative Humidity: 92%
Pressure (altimeter): 29.93 in. Hg (1013 hPa)
ob: KDMO 180653Z AUTO 15005KT 10SM CLR 07/06 A2993 RMK AO2 SLP135 T00720061
cycle: 7

Station Type Date Time Source
KDMO TAF UTC NOAA

Error!

Example: see airport list